Time;durP1;ratioP1;P1;durP2;ratioP2;P2;SDS_P1;SDS_P2;PMS_P1;PMS_P2;Temp;Humidity;BMP_temperature;BMP_pressure;BME280_temperature;BME280_humidity;BME280_pressure;Samples;Min_cycle;Max_cycle;Signal;HPM_P1;HPM_P2
2022/11/01 00:01:56;;;;;;;240.73;58.15;;;11.10;99.90;;;9.63;100.00;100490.88;5076710;28;20020;-83
2022/11/01 00:04:23;;;;;;;241.18;58.28;;;11.10;99.90;;;9.55;100.00;100485.66;5071762;28;20119;-82
2022/11/01 00:06:49;;;;;;;243.45;59.65;;;11.00;99.90;;;9.55;100.00;100477.50;5081999;28;20028;-83
2022/11/01 00:09:15;;;;;;;255.93;59.08;;;11.00;99.90;;;9.49;100.00;100473.72;5082090;28;20404;-83
2022/11/01 00:11:41;;;;;;;237.70;59.72;;;10.90;99.90;;;9.52;100.00;100480.63;5069370;28;20411;-83
2022/11/01 00:14:12;;;;;;;261.63;61.65;;;10.90;99.90;;;9.54;100.00;100474.97;5090122;28;20084;-81
2022/11/01 00:16:39;;;;;;;273.73;64.78;;;10.90;99.90;;;9.52;100.00;100461.56;5068872;28;20028;-82
2022/11/01 00:19:05;;;;;;;265.70;62.58;;;10.90;99.90;;;9.57;100.00;100469.09;5086305;28;20400;-81
2022/11/01 00:21:30;;;;;;;269.25;61.53;;;11.00;99.90;;;9.60;100.00;100466.78;5087941;28;20055;-82
2022/11/01 00:23:56;;;;;;;260.90;62.75;;;11.00;99.90;;;9.62;100.00;100463.81;5086637;28;20031;-82
2022/11/01 00:26:23;;;;;;;267.88;67.78;;;11.00;99.90;;;9.67;100.00;100457.75;5080569;28;20033;-81
2022/11/01 00:28:50;;;;;;;262.77;64.25;;;11.10;99.90;;;9.62;100.00;100440.16;5089738;28;20033;-81
2022/11/01 00:31:18;;;;;;;266.30;66.30;;;11.10;99.90;;;9.75;100.00;100444.72;5079488;28;20033;-81
2022/11/01 00:33:44;;;;;;;259.90;65.43;;;11.10;99.90;;;9.79;100.00;100458.72;5093178;28;20032;-82
2022/11/01 00:36:10;;;;;;;259.02;68.07;;;11.20;99.90;;;9.83;100.00;100440.91;5082935;28;20090;-81
2022/11/01 00:38:37;;;;;;;276.23;66.40;;;11.20;99.90;;;9.86;100.00;100440.47;5089829;28;20024;-83
2022/11/01 00:41:03;;;;;;;270.75;67.97;;;11.30;99.90;;;9.85;100.00;100438.81;5091327;28;20013;-80
2022/11/01 00:43:31;;;;;;;260.55;66.47;;;11.30;99.90;;;9.91;100.00;100446.13;5084488;28;20051;-79
2022/11/01 00:45:57;;;;;;;254.52;65.53;;;11.30;99.90;;;9.90;100.00;100444.44;5082590;28;20039;-80
2022/11/01 00:48:23;;;;;;;264.05;66.10;;;11.30;99.90;;;9.93;100.00;100440.44;5083146;28;20461;-80
2022/11/01 00:50:49;;;;;;;265.83;63.42;;;11.30;99.90;;;9.89;100.00;100442.78;5084374;28;20059;-81
2022/11/01 00:53:15;;;;;;;243.48;63.90;;;11.30;99.90;;;9.88;100.00;100442.97;5087554;28;20492;-81
2022/11/01 00:55:41;;;;;;;274.20;62.58;;;11.30;99.90;;;9.82;100.00;100430.22;5065746;28;20040;-82
2022/11/01 00:58:08;;;;;;;236.50;58.92;;;11.20;99.90;;;9.73;100.00;100424.19;5068507;28;20048;-83
2022/11/01 01:00:35;;;;;;;225.13;57.25;;;11.10;99.90;;;9.66;100.00;100428.84;5078183;28;20050;-82
2022/11/01 01:03:02;;;;;;;229.48;56.92;;;11.10;99.90;;;9.61;100.00;100430.31;5089526;28;20047;-82
2022/11/01 01:05:28;;;;;;;232.32;56.53;;;11.00;99.90;;;9.54;100.00;100428.66;5072867;28;20032;-81
2022/11/01 01:07:54;;;;;;;241.77;59.60;;;11.00;99.90;;;9.53;100.00;100435.16;5095275;28;20036;-83
2022/11/01 01:10:23;;;;;;;222.02;54.75;;;10.90;99.90;;;9.51;100.00;100421.75;5080636;28;20121;-83
2022/11/01 01:12:49;;;;;;;232.45;55.47;;;10.90;99.90;;;9.46;100.00;100413.41;5085257;28;20028;-83
2022/11/01 01:15:15;;;;;;;246.88;58.28;;;10.90;99.90;;;9.45;100.00;100409.00;5080215;28;20024;-84
2022/11/01 01:17:41;;;;;;;237.27;58.30;;;10.80;99.90;;;9.46;100.00;100399.78;5070427;28;20055;-82
2022/11/01 01:20:07;;;;;;;244.95;61.75;;;10.90;99.90;;;9.48;100.00;100400.41;5079038;28;20051;-83
2022/11/01 01:22:33;;;;;;;269.80;64.05;;;10.90;99.90;;;9.57;100.00;100401.84;5100513;28;20048;-81
2022/11/01 01:24:59;;;;;;;270.23;66.63;;;10.90;99.90;;;9.69;100.00;100396.56;5087003;28;20033;-82
2022/11/01 01:27:26;;;;;;;269.83;67.28;;;11.00;99.90;;;9.66;100.00;100388.78;5087357;28;20028;-81
2022/11/01 01:29:52;;;;;;;264.48;68.80;;;11.10;99.90;;;9.75;100.00;100394.84;5093898;28;20035;-81
2022/11/01 01:32:21;;;;;;;278.67;69.10;;;11.20;99.90;;;9.82;100.00;100395.66;5099042;28;20052;-82
2022/11/01 01:34:48;;;;;;;270.83;69.43;;;11.20;99.90;;;9.83;100.00;100397.31;5090958;28;20125;-81
2022/11/01 01:37:15;;;;;;;270.90;70.78;;;11.20;99.90;;;9.85;100.00;100400.66;5073699;28;20699;-81
2022/11/01 01:39:41;;;;;;;265.27;70.28;;;11.30;99.90;;;9.86;100.00;100399.63;5072713;28;20035;-82
2022/11/01 01:42:31;;;;;;;265.58;66.88;;;11.30;99.90;;;9.83;100.00;100391.88;5079736;28;20047;-83
2022/11/01 01:44:57;;;;;;;276.02;69.65;;;11.20;99.90;;;9.84;100.00;100385.38;5082993;28;20089;-81
2022/11/01 01:47:34;;;;;;;250.73;69.55;;;11.20;99.90;;;9.85;100.00;100378.88;5081513;28;20408;-80
2022/11/01 01:50:16;;;;;;;227.27;65.20;;;11.30;99.90;;;9.83;100.00;100372.81;5087145;28;20571;-82
2022/11/01 01:53:05;;;;;;;262.98;66.70;;;11.20;99.90;;;9.83;100.00;100370.09;5068758;28;20121;-81
2022/11/01 01:55:45;;;;;;;261.02;69.10;;;11.20;99.90;;;9.86;100.00;100357.88;5085332;28;20028;-82
2022/11/01 01:58:15;;;;;;;263.50;67.53;;;11.30;99.90;;;9.87;100.00;100357.69;5090794;28;20040;-82
2022/11/01 02:00:43;;;;;;;278.88;71.35;;;11.30;99.90;;;9.84;100.00;100349.94;5091349;28;20058;-81
2022/11/01 02:03:09;;;;;;;;;;;11.30;99.90;;;9.83;100.00;100345.56;5093921;28;20090;-81
2022/11/01 02:05:53;;;;;;;273.77;67.57;;;11.20;99.90;;;9.87;100.00;100341.34;5089625;28;19947;-79
2022/11/01 02:08:26;;;;;;;256.30;71.30;;;11.20;99.90;;;9.89;100.00;100347.41;5092315;28;20027;-80
2022/11/01 02:11:08;;;;;;;267.48;70.72;;;11.30;99.90;;;9.90;100.00;100337.31;5070685;28;20070;-81
2022/11/01 02:13:34;;;;;;;269.65;69.35;;;11.30;99.90;;;9.89;100.00;100336.50;5076387;28;20029;-81
2022/11/01 02:16:41;;;;;;;250.75;70.32;;;11.30;99.90;;;9.86;100.00;100341.53;5050950;28;20117;-81
2022/11/01 02:19:37;;;;;;;269.77;70.22;;;11.30;99.90;;;9.83;100.00;100337.38;5047620;28;20586;-81
2022/11/01 02:22:15;;;;;;;289.77;72.03;;;11.20;99.90;;;9.83;100.00;100326.50;5074637;28;20477;-81
2022/11/01 02:25:09;;;;;;;266.15;71.82;;;11.20;99.90;;;9.84;100.00;100321.84;5066623;28;20130;-82
2022/11/01 02:27:50;;;;;;;268.88;69.30;;;11.20;99.90;;;9.80;100.00;100318.72;5071255;28;20435;-81
2022/11/01 02:30:22;;;;;;;286.75;73.97;;;11.20;99.90;;;9.83;100.00;100312.88;5066350;28;20035;-81
2022/11/01 02:33:12;;;;;;;288.25;73.85;;;11.30;99.90;;;9.85;100.00;100318.06;5067996;28;20024;-81
2022/11/01 02:36:05;;;;;;;283.92;72.70;;;11.30;99.90;;;9.84;100.00;100305.50;5064382;28;20060;-83
2022/11/01 02:38:46;;;;;;;266.58;73.63;;;11.30;99.90;;;9.82;100.00;100310.34;5073858;28;20093;-82
2022/11/01 02:41:33;;;;;;;273.80;71.85;;;11.20;99.90;;;9.76;100.00;100318.34;5075027;28;20321;-81
2022/11/01 02:44:08;;;;;;;277.98;71.20;;;11.20;99.90;;;9.76;100.00;100318.34;5074273;28;20025;-81
2022/11/01 02:49:37;;;;;;;288.42;73.40;;;11.20;99.90;;;9.87;100.00;100299.63;5074024;28;20028;-80
2022/11/01 02:52:07;;;;;;;291.02;76.07;;;11.30;99.90;;;9.91;100.00;100300.84;5066630;28;20024;-81
2022/11/01 02:54:42;;;;;;;285.00;75.13;;;11.30;99.90;;;9.97;100.00;100301.84;5072175;28;20024;-82
2022/11/01 02:57:34;;;;;;;276.88;76.63;;;11.40;99.90;;;9.95;100.00;100296.66;5064868;28;20037;-81
2022/11/01 03:00:18;;;;;;;278.33;73.82;;;11.40;99.90;;;10.00;100.00;100299.53;5062959;28;20043;-82
2022/11/01 03:02:44;;;;;;;286.58;75.80;;;11.40;99.90;;;10.00;100.00;100295.97;5054863;28;20017;-81
2022/11/01 03:05:18;;;;;;;274.60;74.25;;;11.40;99.90;;;9.99;100.00;100303.31;5063995;28;20119;-81
2022/11/01 03:07:51;;;;;;;268.25;74.70;;;11.40;99.90;;;9.93;100.00;100296.00;5051008;28;20066;-81
2022/11/01 03:10:22;;;;;;;258.58;70.65;;;11.40;99.90;;;9.96;100.00;100303.75;5057335;28;20511;-81
2022/11/01 03:13:04;;;;;;;279.23;73.28;;;11.40;99.90;;;9.98;100.00;100303.53;5058385;28;20067;-80
2022/11/01 03:15:39;;;;;;;275.95;73.80;;;11.40;99.90;;;9.89;100.00;100303.81;5060511;28;20083;-81
2022/11/01 03:18:29;;;;;;;280.38;73.22;;;11.40;99.90;;;9.94;100.00;100294.94;5056060;28;20025;-81
2022/11/01 03:21:14;;;;;;;276.35;71.60;;;11.30;99.90;;;9.92;100.00;100295.19;5052614;28;20029;-81
2022/11/01 03:23:55;;;;;;;263.02;69.82;;;11.30;99.90;;;9.81;100.00;100279.53;5051359;28;20025;-81
2022/11/01 03:26:29;;;;;;;253.52;69.47;;;11.30;99.90;;;9.84;100.00;100295.47;5054933;28;20072;-81
2022/11/01 03:29:05;;;;;;;249.10;70.65;;;11.30;99.90;;;9.79;100.00;100284.38;5055937;28;20087;-81
2022/11/01 03:31:36;;;;;;;230.40;67.68;;;11.30;99.90;;;9.81;100.00;100289.59;5056391;28;20033;-82
2022/11/01 03:34:10;;;;;;;247.50;67.43;;;11.20;99.90;;;9.74;100.00;100284.19;5049841;28;20027;-82
2022/11/01 03:36:45;;;;;;;259.40;70.15;;;11.20;99.90;;;9.82;100.00;100292.13;5053552;28;20115;-82
2022/11/01 03:39:31;;;;;;;255.23;69.55;;;11.20;99.90;;;9.87;100.00;100299.63;5047314;28;20037;-83
2022/11/01 03:42:06;;;;;;;233.30;67.32;;;11.30;99.90;;;9.84;100.00;100281.00;5053877;28;20032;-81
2022/11/01 03:44:47;;;;;;;218.68;62.15;;;11.30;99.90;;;9.83;100.00;100284.78;5050222;28;20024;-82
2022/11/01 03:47:14;;;;;;;231.45;64.65;;;11.20;99.90;;;9.81;100.00;100290.44;5051445;28;20043;-82
2022/11/01 03:49:39;;;;;;;224.55;63.03;;;11.30;99.90;;;9.81;100.00;100290.44;5053631;28;20029;-82
2022/11/01 03:52:06;;;;;;;218.68;63.95;;;11.20;99.90;;;9.79;100.00;100276.19;5058355;28;20089;-82
2022/11/01 03:54:32;;;;;;;226.93;64.65;;;11.20;99.90;;;9.82;100.00;100283.94;5050744;28;20032;-82
2022/11/01 03:56:58;;;;;;;243.27;66.55;;;11.20;99.90;;;9.81;100.00;100271.34;5065342;28;20135;-82
2022/11/01 03:59:24;;;;;;;238.13;66.90;;;11.30;99.90;;;9.89;100.00;100271.09;5044522;28;20121;-82
2022/11/01 04:01:49;;;;;;;243.20;68.50;;;11.30;99.90;;;9.94;100.00;100262.25;5045585;28;20508;-80
2022/11/01 04:04:15;;;;;;;250.18;71.47;;;11.40;99.90;;;9.98;100.00;100254.47;5073281;28;20457;-81
2022/11/01 04:06:41;;;;;;;255.77;72.18;;;11.40;99.90;;;10.04;100.00;100253.56;5072905;28;20052;-81
2022/11/01 04:09:07;;;;;;;228.40;71.78;;;11.40;99.90;;;10.12;100.00;100268.81;5056991;28;20350;-82
2022/11/01 04:11:33;;;;;;;240.55;69.18;;;11.50;99.90;;;10.21;100.00;100262.88;5069598;28;20354;-81
2022/11/01 04:22:12;;;;;;;183.25;58.53;;;11.70;99.90;;;10.31;100.00;100247.88;5051174;28;20245;-83
2022/11/01 04:24:38;;;;;;;186.07;60.20;;;11.70;99.90;;;10.31;100.00;100240.53;5058517;28;20441;-82
2022/11/01 04:27:03;;;;;;;198.00;59.92;;;11.70;99.90;;;10.34;100.00;100237.38;5054311;28;20024;-84
2022/11/01 04:29:29;;;;;;;185.65;61.05;;;11.70;99.90;;;10.34;100.00;100220.16;5041939;28;20047;-84
2022/11/01 04:31:55;;;;;;;184.13;59.75;;;11.70;99.90;;;10.33;100.00;100226.66;5058411;28;20120;-82
2022/11/01 04:37:05;;;;;;;184.38;63.28;;;11.80;99.90;;;10.41;100.00;100240.06;5049517;28;20029;-87
2022/11/01 04:39:31;;;;;;;183.90;60.00;;;11.80;99.90;;;10.55;100.00;100259.00;5052094;28;20039;-85
2022/11/01 04:41:56;;;;;;;169.77;57.30;;;11.90;99.90;;;10.66;100.00;100266.44;5050387;28;20021;-84
2022/11/01 04:44:22;;;;;;;163.60;57.30;;;12.00;99.90;;;10.71;100.00;100277.50;5055622;28;20041;-83
2022/11/01 04:46:48;;;;;;;144.52;54.50;;;12.00;99.90;;;10.72;100.00;100270.13;5061378;28;20029;-84
2022/11/01 04:49:13;;;;;;;148.85;51.70;;;12.10;99.90;;;10.72;100.00;100273.72;5047945;28;20041;-77
2022/11/01 04:51:40;;;;;;;139.73;51.20;;;12.10;99.90;;;10.73;100.00;100291.75;5047435;28;20029;-79
2022/11/01 04:54:07;;;;;;;140.35;49.88;;;12.10;99.90;;;10.71;100.00;100287.56;5050811;28;20025;-79
2022/11/01 04:56:34;;;;;;;123.57;47.05;;;12.10;99.90;;;10.67;100.00;100289.94;5048165;28;20053;-79
2022/11/01 04:58:59;;;;;;;128.77;46.60;;;12.00;99.90;;;10.62;100.00;100273.41;5047900;28;20044;-79
2022/11/01 05:01:25;;;;;;;125.60;43.50;;;12.00;99.90;;;10.58;100.00;100256.66;5047911;28;20044;-77
2022/11/01 05:03:51;;;;;;;102.38;39.67;;;12.00;99.90;;;10.55;100.00;100281.66;5060458;28;20033;-78
2022/11/01 05:06:17;;;;;;;103.35;40.47;;;11.90;99.90;;;10.52;100.00;100284.00;5062936;28;20098;-78
2022/11/01 05:08:43;;;;;;;97.88;41.33;;;11.90;99.90;;;10.59;100.00;100290.22;5060435;28;20131;-78
2022/11/01 05:11:08;;;;;;;110.32;41.47;;;11.90;99.90;;;10.56;100.00;100298.84;5061445;28;20115;-78
2022/11/01 05:13:35;;;;;;;96.43;39.08;;;11.90;99.90;;;10.50;100.00;100293.25;5062046;28;20066;-78
2022/11/01 05:16:04;;;;;;;93.53;37.83;;;11.80;99.90;;;10.48;100.00;100292.63;5062072;28;20039;-78
2022/11/01 05:18:30;;;;;;;98.43;39.40;;;11.80;99.90;;;10.45;100.00;100293.09;5064998;28;20051;-78
2022/11/01 05:20:56;;;;;;;104.50;41.78;;;11.80;99.90;;;10.38;100.00;100288.72;5061421;28;20307;-77
2022/11/01 05:23:22;;;;;;;95.30;40.90;;;11.80;99.90;;;10.30;100.00;100284.38;5063413;28;20032;-77
2022/11/01 05:25:48;;;;;;;95.47;41.05;;;11.70;99.90;;;10.26;100.00;100284.00;5067131;28;20048;-77
2022/11/01 05:28:13;;;;;;;104.70;41.47;;;11.70;99.90;;;10.24;100.00;100294.31;5047139;28;20055;-77
2022/11/01 05:30:41;;;;;;;115.80;43.90;;;11.70;99.90;;;10.21;100.00;100289.28;5064610;28;20079;-77
2022/11/01 05:33:09;;;;;;;112.80;44.88;;;11.60;99.90;;;10.23;100.00;100303.53;5067145;28;20472;-78
2022/11/01 05:35:35;;;;;;;109.15;42.75;;;11.60;99.90;;;10.24;100.00;100297.03;5059873;28;20036;-78
2022/11/01 05:38:03;;;;;;;111.07;44.92;;;11.60;99.90;;;10.27;100.00;100303.91;5065784;28;20055;-77
2022/11/01 05:40:30;;;;;;;115.10;44.20;;;11.70;99.90;;;10.31;100.00;100294.22;5065857;28;20119;-77
2022/11/01 05:42:56;;;;;;;98.22;39.08;;;11.70;99.90;;;10.51;100.00;100305.00;5066686;28;20094;-78
2022/11/01 05:45:22;;;;;;;85.78;36.65;;;11.80;99.90;;;10.85;100.00;100304.63;5064882;28;20037;-76
2022/11/01 05:47:48;;;;;;;76.70;34.38;;;12.10;99.90;;;11.04;100.00;100302.75;5066013;28;20032;-78
2022/11/01 05:50:15;;;;;;;55.65;25.23;;;12.30;99.90;;;11.35;100.00;100303.63;5064379;28;20132;-76
2022/11/01 05:52:42;;;;;;;48.20;24.30;;;12.50;99.90;;;11.54;100.00;100300.81;5063208;28;20400;-78
2022/11/01 05:55:09;;;;;;;40.45;21.15;;;12.70;99.90;;;11.76;100.00;100303.91;5054955;28;20047;-77
2022/11/01 05:57:35;;;;;;;31.35;17.92;;;12.90;99.90;;;12.06;100.00;100308.50;5050230;28;20072;-77
2022/11/01 06:00:02;;;;;;;28.02;15.38;;;13.10;99.90;;;12.37;100.00;100322.94;5049702;28;20039;-78
2022/11/01 06:02:37;;;;;;;29.23;14.40;;;13.40;99.90;;;12.79;100.00;100331.03;5050250;28;20043;-76
2022/11/01 06:05:03;;;;;;;22.63;11.70;;;13.60;99.90;;;13.11;100.00;100348.13;5051919;28;20037;-75
2022/11/01 06:07:29;;;;;;;20.98;11.40;;;13.90;99.90;;;13.21;100.00;100368.34;5052044;28;20051;-75
2022/11/01 06:09:55;;;;;;;22.13;9.93;;;14.10;99.90;;;13.34;100.00;100388.31;5055382;28;20052;-76
2022/11/01 06:12:24;;;;;;;15.98;9.43;;;14.40;99.90;;;13.42;100.00;100395.34;5054364;28;20029;-77
2022/11/01 06:14:50;;;;;;;14.10;9.77;;;14.50;99.90;;;13.48;100.00;100405.34;5063578;28;20487;-77
2022/11/01 06:17:16;;;;;;;20.67;10.85;;;14.60;99.90;;;13.54;100.00;100406.28;5058248;28;20111;-77
2022/11/01 06:19:42;;;;;;;19.35;8.70;;;14.70;99.90;;;13.62;100.00;100404.00;5052907;28;20128;-78
2022/11/01 06:22:08;;;;;;;17.52;9.00;;;14.80;99.90;;;13.64;100.00;100407.34;5053796;28;20063;-76
2022/11/01 06:24:33;;;;;;;16.58;8.65;;;14.80;99.90;;;13.68;100.00;100395.88;5053572;28;20040;-77
2022/11/01 06:26:59;;;;;;;17.50;8.63;;;14.90;99.90;;;13.70;100.00;100402.81;5054236;28;20102;-78
2022/11/01 06:29:25;;;;;;;17.27;7.85;;;14.90;99.90;;;13.73;100.00;100394.09;5058985;28;20456;-76
2022/11/01 06:31:51;;;;;;;13.40;7.97;;;14.90;99.90;;;13.69;100.00;100390.19;5055022;28;20025;-78
2022/11/01 06:34:16;;;;;;;14.90;7.47;;;14.90;99.90;;;13.66;100.00;100383.25;5058263;28;20032;-77
2022/11/01 06:36:42;;;;;;;16.73;8.18;;;14.90;99.90;;;13.69;100.00;100390.19;5062960;28;20082;-78
2022/11/01 06:39:10;;;;;;;16.63;8.23;;;14.90;99.90;;;13.71;100.00;100401.72;5063749;28;20044;-77
2022/11/01 06:41:36;;;;;;;;;;;14.90;99.90;;;13.70;100.00;100411.03;5055787;28;20033;-76
2022/11/01 06:44:02;;;;;;;13.70;7.00;;;14.90;99.90;;;13.74;100.00;100414.09;5048911;28;20408;-78
2022/11/01 06:46:27;;;;;;;15.23;8.27;;;14.90;99.90;;;13.75;100.00;100415.75;5051121;28;20057;-77
2022/11/01 06:48:53;;;;;;;14.93;7.32;;;15.00;99.90;;;13.77;100.00;100424.56;5046948;28;20185;-77
2022/11/01 06:51:19;;;;;;;14.40;7.93;;;15.00;99.90;;;13.78;100.00;100437.19;5049518;28;20033;-79
2022/11/01 06:53:44;;;;;;;15.95;6.93;;;15.00;99.90;;;13.74;100.00;100430.53;5049363;28;20033;-83
2022/11/01 06:56:10;;;;;;;13.57;7.07;;;15.00;99.90;;;13.79;100.00;100441.59;5055312;28;20055;-83
2022/11/01 06:58:36;;;;;;;13.77;7.53;;;15.00;99.90;;;13.83;100.00;100445.56;5047817;28;20531;-83
2022/11/01 07:01:02;;;;;;;15.75;7.10;;;15.10;99.90;;;13.83;100.00;100440.06;5051132;28;20401;-82
2022/11/01 07:03:28;;;;;;;10.35;6.90;;;15.10;99.90;;;13.85;100.00;100442.56;5049320;28;20037;-81
2022/11/01 07:05:54;;;;;;;11.38;7.13;;;15.10;99.90;;;13.92;100.00;100457.78;5053082;28;20075;-82
2022/11/01 07:08:19;;;;;;;17.58;7.30;;;15.10;99.90;;;13.93;100.00;100456.72;5048571;28;20032;-82
2022/11/01 07:10:50;;;;;;;13.98;7.10;;;15.20;99.90;;;13.89;100.00;100466.50;5048893;28;20033;-82
2022/11/01 07:13:16;;;;;;;12.07;6.22;;;15.20;99.90;;;13.98;100.00;100475.19;5048543;28;20361;-83
2022/11/01 07:15:42;;;;;;;14.73;7.55;;;15.20;99.90;;;13.97;100.00;100469.94;5048882;28;20032;-83
2022/11/01 07:18:08;;;;;;;15.63;7.60;;;15.20;99.90;;;14.03;100.00;100471.69;5055851;28;20074;-83
2022/11/01 07:20:40;;;;;;;21.88;7.13;;;15.30;99.90;;;14.13;100.00;100471.91;5047732;28;20028;-83
2022/11/01 07:23:16;;;;;;;17.48;7.55;;;15.30;99.90;;;14.21;100.00;100479.75;5053900;28;20025;-83
2022/11/01 07:25:42;;;;;;;16.65;6.78;;;15.40;99.90;;;14.23;100.00;100488.56;5033324;28;20029;-83
2022/11/01 07:28:09;;;;;;;15.68;7.38;;;15.50;99.90;;;14.32;100.00;100490.88;5050915;28;20106;-83
2022/11/01 07:30:35;;;;;;;12.98;6.03;;;15.50;99.90;;;14.35;100.00;100485.75;5053317;28;20560;-83
2022/11/01 07:33:05;;;;;;;10.60;5.60;;;15.50;99.90;;;14.52;100.00;100491.28;5048900;28;20025;-81
2022/11/01 07:35:32;;;;;;;14.43;6.43;;;15.70;99.90;;;14.53;100.00;100490.19;5049024;28;20025;-83
2022/11/01 07:37:59;;;;;;;10.90;6.22;;;15.80;99.90;;;14.55;100.00;100491.84;5050889;28;20286;-82
2022/11/01 07:40:27;;;;;;;11.27;5.75;;;15.80;99.90;;;14.64;100.00;100493.13;5055803;28;20033;-82
2022/11/01 07:43:00;;;;;;;12.37;6.10;;;15.80;99.90;;;14.58;100.00;100488.63;5049179;28;20036;-82
2022/11/01 07:45:29;;;;;;;11.98;6.68;;;15.80;99.90;;;14.40;100.00;100493.25;5053980;28;20029;-81
2022/11/01 07:48:09;;;;;;;12.20;6.25;;;15.80;99.90;;;14.36;100.00;100492.91;5050310;28;20040;-81
2022/11/01 07:50:36;;;;;;;14.23;5.82;;;15.70;99.90;;;14.40;100.00;100498.75;5048036;28;20409;-80
2022/11/01 07:53:07;;;;;;;12.43;6.50;;;15.70;99.90;;;14.46;100.00;100508.72;5053049;28;20028;-83
2022/11/01 07:55:34;;;;;;;12.43;6.50;;;15.70;99.90;;;14.46;100.00;100505.19;5050137;28;20033;-82
2022/11/01 07:58:01;;;;;;;13.65;6.20;;;15.80;99.90;;;14.47;100.00;100493.94;5051884;28;20025;-83
2022/11/01 08:00:28;;;;;;;12.02;6.28;;;15.80;99.90;;;14.51;100.00;100495.09;5048803;28;20153;-82
2022/11/01 08:03:06;;;;;;;10.48;6.13;;;15.80;99.90;;;14.46;100.00;100497.75;5047895;28;20028;-82
2022/11/01 08:05:33;;;;;;;13.40;6.60;;;15.80;99.90;;;14.45;100.00;100496.09;5054751;28;20032;-82
2022/11/01 08:07:59;;;;;;;14.20;6.78;;;15.80;99.90;;;14.55;100.00;100505.56;5048323;28;20028;-83
2022/11/01 08:10:25;;;;;;;12.77;6.43;;;15.90;99.90;;;14.66;100.00;100508.25;5038241;28;20444;-82
2022/11/01 08:12:51;;;;;;;12.20;6.10;;;15.90;99.90;;;14.81;100.00;100504.97;5057433;28;20434;-83
2022/11/01 08:15:17;;;;;;;11.43;5.63;;;16.10;99.90;;;14.92;100.00;100516.16;5051943;28;20035;-77
2022/11/01 08:17:43;;;;;;;9.65;6.32;;;16.20;99.90;;;14.97;100.00;100518.97;5047487;28;20106;-80
2022/11/01 08:20:09;;;;;;;15.52;5.93;;;16.20;99.90;;;15.05;100.00;100512.25;5052230;28;20048;-80
2022/11/01 08:22:39;;;;;;;10.80;5.15;;;16.30;99.90;;;15.14;100.00;100524.47;5050541;28;20043;-82
2022/11/01 08:25:06;;;;;;;13.45;5.35;;;16.40;99.90;;;15.20;100.00;100525.38;5053168;28;20041;-83
2022/11/01 08:27:31;;;;;;;11.90;5.93;;;16.40;99.90;;;15.27;100.00;100520.53;5048213;28;20111;-78
2022/11/01 08:29:57;;;;;;;9.88;5.55;;;16.50;99.90;;;15.41;100.00;100518.28;5031836;28;20033;-79
2022/11/01 08:32:23;;;;;;;10.07;5.18;;;16.60;99.90;;;15.59;100.00;100514.41;5047985;28;20094;-82
2022/11/01 08:34:49;;;;;;;13.57;6.13;;;16.80;99.90;;;15.67;100.00;100513.13;5060629;28;20353;-81
2022/11/01 08:37:14;;;;;;;11.13;5.10;;;16.80;99.90;;;15.78;100.00;100516.84;5061086;28;20040;-82
2022/11/01 08:39:40;;;;;;;11.77;4.78;;;16.90;99.90;;;15.86;100.00;100513.66;5052843;28;20103;-81
2022/11/01 08:42:08;;;;;;;11.55;4.63;;;17.00;99.90;;;15.91;100.00;100515.69;5060269;28;20047;-82
2022/11/01 08:44:33;;;;;;;10.10;5.38;;;17.00;99.90;;;15.93;100.00;100517.09;5060747;28;20058;-81
2022/11/01 08:47:01;;;;;;;10.93;5.15;;;17.10;99.90;;;15.95;100.00;100519.56;5064206;28;20040;-81
2022/11/01 08:49:27;;;;;;;10.50;4.90;;;17.20;99.90;;;16.01;100.00;100532.31;5062631;28;20112;-79
2022/11/01 08:51:54;;;;;;;12.10;4.47;;;17.20;99.90;;;16.02;100.00;100539.47;5062376;28;20457;-80
2022/11/01 08:54:20;;;;;;;12.02;4.47;;;17.20;99.90;;;16.16;99.86;100545.41;5067551;28;20081;-81
2022/11/01 08:56:48;;;;;;;12.50;4.63;;;17.30;99.90;;;16.28;99.41;100549.97;5065767;28;20075;-81
2022/11/01 08:59:14;;;;;;;10.25;4.70;;;17.40;99.90;;;16.47;98.58;100558.69;5064027;28;20184;-82
2022/11/01 09:01:39;;;;;;;12.85;4.68;;;17.60;99.90;;;16.69;96.47;100558.66;5061160;28;20025;-81
2022/11/01 09:04:06;;;;;;;10.85;5.10;;;17.80;99.90;;;16.83;93.23;100559.91;5056121;28;20473;-82
2022/11/01 09:06:32;;;;;;;10.52;4.95;;;18.00;99.90;;;17.14;93.41;100564.06;5065153;28;20047;-83
2022/11/01 09:08:59;;;;;;;10.55;4.80;;;18.20;99.90;;;17.24;90.72;100558.63;5058548;28;20303;-82
2022/11/01 09:11:25;;;;;;;8.98;4.25;;;18.40;99.90;;;17.38;88.86;100559.00;5058983;28;20105;-83
2022/11/01 09:13:56;;;;;;;8.55;4.47;;;18.60;99.90;;;17.41;89.58;100550.22;5062513;28;20071;-83
2022/11/01 09:16:22;;;;;;;8.27;4.03;;;18.70;99.90;;;17.38;88.60;100572.81;5050071;28;20040;-82
2022/11/01 09:18:51;;;;;;;9.35;4.30;;;18.60;99.90;;;17.37;89.60;100569.19;5052481;28;20037;-84
2022/11/01 09:21:17;;;;;;;11.35;4.13;;;18.60;99.90;;;17.39;88.58;100558.72;5070700;28;20084;-83
2022/11/01 09:23:45;;;;;;;10.15;4.38;;;18.60;99.90;;;17.39;87.57;100560.69;5073399;28;20052;-82
2022/11/01 09:26:12;;;;;;;11.80;3.38;;;18.60;99.90;;;17.37;86.79;100566.44;5084625;28;20055;-83
2022/11/01 09:28:38;;;;;;;11.07;3.45;;;18.60;99.90;;;17.26;85.64;100567.47;5083304;28;20090;-79
2022/11/01 09:31:08;;;;;;;7.50;3.15;;;18.50;99.90;;;17.13;87.09;100578.94;5082301;28;20029;-84
2022/11/01 09:33:34;;;;;;;6.72;3.22;;;18.40;99.90;;;17.17;87.03;100577.31;5082748;28;20024;-83
2022/11/01 09:36:00;;;;;;;7.40;3.10;;;18.40;99.90;;;17.11;86.01;100581.97;5084174;28;20029;-83
2022/11/01 09:38:27;;;;;;;9.48;3.72;;;18.30;99.90;;;17.16;85.58;100593.03;5081612;28;20028;-83
2022/11/01 09:41:30;;;;;;;8.10;3.00;;;18.40;99.90;;;17.19;86.77;100592.50;5065894;28;20037;-85
2022/11/01 09:44:00;;;;;;;8.88;3.65;;;18.30;99.90;;;17.21;86.53;100586.69;5063762;28;20061;-80
2022/11/01 09:46:43;;;;;;;9.57;3.70;;;18.40;99.90;;;17.02;85.63;100589.03;5066484;28;20051;-82
2022/11/01 09:49:19;;;;;;;9.73;3.28;;;18.30;99.90;;;17.02;87.95;100589.03;5073224;28;20044;-87
2022/11/01 09:51:45;;;;;;;7.45;3.78;;;18.20;99.90;;;17.07;85.22;100592.66;5060107;28;20033;-83
2022/11/01 09:54:11;;;;;;;6.68;3.60;;;18.20;99.90;;;17.01;85.26;100593.72;5061950;28;20036;-85
2022/11/01 09:56:56;;;;;;;7.25;3.30;;;18.20;99.90;;;16.94;85.91;100604.91;5061412;28;20045;-85
2022/11/01 09:59:34;;;;;;;7.55;3.00;;;18.20;99.90;;;16.93;84.57;100607.91;5038990;28;20055;-84
2022/11/01 10:02:40;;;;;;;9.48;3.45;;;18.10;99.90;;;16.87;84.60;100614.47;5069535;28;20033;-85
2022/11/01 10:05:37;;;;;;;8.13;3.63;;;18.10;99.90;;;16.82;86.15;100613.34;5063006;28;20111;-85
2022/11/01 10:08:21;;;;;;;6.72;3.58;;;18.00;99.90;;;16.89;84.96;100620.56;5063386;28;20060;-86
2022/11/01 10:11:06;;;;;;;6.57;3.30;;;18.10;99.90;;;17.00;83.75;100614.09;5065281;28;20119;-85
2022/11/01 10:14:03;;;;;;;7.78;3.67;;;18.10;99.90;;;16.86;82.28;100618.31;5059047;28;20481;-85
2022/11/01 10:16:42;;;;;;;6.82;2.80;;;18.10;99.90;;;16.85;82.34;100609.25;5042585;28;20828;-85
2022/11/01 10:19:14;;;;;;;7.32;3.38;;;18.10;99.90;;;16.88;82.87;100608.72;5056764;28;20049;-84
2022/11/01 10:21:54;;;;;;;6.38;3.22;;;18.10;99.90;;;17.08;81.22;100610.03;5062706;28;20399;-84
2022/11/01 10:25:03;;;;;;;6.15;2.90;;;18.20;99.90;;;18.49;72.67;100610.66;5064772;28;20090;-85